Time;durP1;ratioP1;P1;durP2;ratioP2;P2;SDS_P1;SDS_P2;PMS_P1;PMS_P2;Temp;Humidity;BMP_temperature;BMP_pressure;BME280_temperature;BME280_humidity;BME280_pressure;Samples;Min_cycle;Max_cycle;Signal;HPM_P1;HPM_P2
2022/05/03 06:01:40;;;;;;;72.35;35.13;;;;;;;;;;5434836;23;20126;-82
2022/05/03 06:04:08;;;;;;;70.55;36.85;;;;;;;;;;4949007;28;20042;-82
2022/05/03 06:06:36;;;;;;;70.68;36.42;;;;;;;;;;4953292;28;20134;-81
2022/05/03 06:09:03;;;;;;;64.22;34.78;;;;;;;;;;4951892;28;20043;-83
2022/05/03 06:11:29;;;;;;;72.80;36.47;;;;;;;;;;4952913;28;20120;-81
2022/05/03 06:13:56;;;;;;;65.45;34.65;;;;;;;;;;4951446;28;20067;-82
2022/05/03 06:16:23;;;;;;;71.55;36.70;;;;;;;;;;4944417;28;20133;-82
2022/05/03 06:18:50;;;;;;;68.50;36.00;;;;;;;;;;4945554;28;20059;-82
2022/05/03 06:21:16;;;;;;;68.88;35.63;;;;;;;;;;4943001;28;20121;-81
2022/05/03 06:23:43;;;;;;;70.60;36.30;;;;;;;;;;4945712;28;20130;-82
2022/05/03 06:26:10;;;;;;;68.40;35.38;;;;;;;;;;4949407;28;20138;-82
2022/05/03 06:28:43;;;;;;;62.92;33.97;;;;;;;;;;4948364;28;20102;-83
2022/05/03 06:31:10;;;;;;;67.35;34.33;;;;;;;;;;4948392;28;20111;-82
2022/05/03 06:33:37;;;;;;;64.43;34.83;;;;;;;;;;4953815;28;20055;-83
2022/05/03 06:36:09;;;;;;;66.47;34.30;;;;;;;;;;4950885;28;20047;-82
2022/05/03 06:38:36;;;;;;;62.15;33.53;;;;;;;;;;4952869;28;20134;-83
2022/05/03 06:41:03;;;;;;;60.70;31.92;;;;;;;;;;4953708;28;20081;-82
2022/05/03 06:43:29;;;;;;;59.90;32.40;;;;;;;;;;4953781;28;20102;-81
2022/05/03 06:45:56;;;;;;;59.17;32.47;;;;;;;;;;4953662;28;20051;-82
2022/05/03 06:48:23;;;;;;;59.50;32.38;;;;;;;;;;4954366;28;20047;-82
2022/05/03 06:50:49;;;;;;;68.28;33.47;;;;;;;;;;4953265;28;20578;-82
2022/05/03 06:53:18;;;;;;;60.70;31.20;;;;;;;;;;4952419;28;20043;-82
2022/05/03 06:55:45;;;;;;;57.05;30.42;;;;;;;;;;4952667;28;20534;-81
2022/05/03 06:58:13;;;;;;;54.00;30.17;;;;;;;;;;4953365;28;20075;-83
2022/05/03 07:00:39;;;;;;;55.83;30.88;;;;;;;;;;4952907;28;20118;-83
2022/05/03 07:03:06;;;;;;;55.03;31.40;;;;;;;;;;4953314;28;20098;-84
2022/05/03 07:05:33;;;;;;;53.13;30.58;;;;;;;;;;4951848;28;20055;-82
2022/05/03 07:08:00;;;;;;;56.30;30.73;;;;;;;;;;4949560;28;20126;-84
2022/05/03 07:10:27;;;;;;;55.70;30.20;;;;;;;;;;4946585;28;20074;-83
2022/05/03 07:12:53;;;;;;;52.78;29.75;;;;;;;;;;4947530;29;20051;-83
2022/05/03 07:15:20;;;;;;;54.13;29.67;;;;;;;;;;4949619;28;20081;-83
2022/05/03 07:23:26;;;;;;;46.67;27.95;;;;;;;;;;4873474;29;20136;-83
2022/05/03 07:25:53;;;;;;;47.75;28.70;;;;;;;;;;4870396;29;20052;-82
2022/05/03 07:28:20;;;;;;;43.53;26.25;;;;;;;;;;4867173;29;20398;-81
2022/05/03 07:30:47;;;;;;;44.53;27.35;;;;;;;;;;4869681;29;20113;-83
2022/05/03 07:33:13;;;;;;;44.72;26.80;;;;;;;;;;4871947;29;20140;-83
2022/05/03 07:35:40;;;;;;;40.03;26.48;;;;;;;;;;4870326;29;20072;-83
2022/05/03 07:38:07;;;;;;;44.47;25.85;;;;;;;;;;4869351;29;20537;-83
2022/05/03 07:40:33;;;;;;;38.78;25.05;;;;;;;;;;4854137;29;20088;-81
2022/05/03 07:43:03;;;;;;;47.17;26.42;;;;;;;;;;4869878;29;20074;-83
2022/05/03 07:45:29;;;;;;;44.15;25.55;;;;;;;;;;4870245;29;20136;-82
2022/05/03 07:48:01;;;;;;;47.67;28.02;;;;;;;;;;4873305;29;20066;-83
2022/05/03 07:50:28;;;;;;;41.15;25.50;;;;;;;;;;4867928;29;20167;-81
2022/05/03 07:52:54;;;;;;;42.15;26.20;;;;;;;;;;4868551;29;20164;-82
2022/05/03 07:55:21;;;;;;;40.50;25.75;;;;;;;;;;4868686;29;20184;-82
2022/05/03 07:57:48;;;;;;;44.03;26.15;;;;;;;;;;4906793;29;20055;-82
2022/05/03 08:00:15;;;;;;;43.35;26.42;;;;;;;;;;4947484;28;20519;-82
2022/05/03 08:02:41;;;;;;;40.97;24.95;;;;;;;;;;4946754;28;20083;-82
2022/05/03 08:05:10;;;;;;;38.80;25.55;;;;;;;;;;4946452;28;20054;-82
2022/05/03 08:07:37;;;;;;;44.78;26.08;;;;;;;;;;4946176;28;20102;-82
2022/05/03 08:10:04;;;;;;;47.63;25.08;;;;;;;;;;4946715;28;20126;-82
2022/05/03 08:12:31;;;;;;;41.63;24.92;;;;;;;;;;4947310;28;20051;-82
2022/05/03 08:14:58;;;;;;;41.72;24.67;;;;;;;;;;4946863;28;20106;-81
2022/05/03 08:17:27;;;;;;;38.97;24.85;;;;;;;;;;4946057;28;20055;-81
2022/05/03 08:19:54;;;;;;;37.15;24.23;;;;;;;;;;4946588;28;20047;-82
2022/05/03 08:22:21;;;;;;;39.08;23.67;;;;;;;;;;4946240;28;20142;-82
2022/05/03 08:24:47;;;;;;;39.55;23.88;;;;;;;;;;4946294;28;20079;-82
2022/05/03 08:27:14;;;;;;;36.60;23.25;;;;;;;;;;4945519;28;20075;-82
2022/05/03 08:29:40;;;;;;;39.25;23.98;;;;;;;;;;4946231;28;20349;-82
2022/05/03 08:32:08;;;;;;;37.80;23.83;;;;;;;;;;4946107;28;20106;-80
2022/05/03 08:34:35;;;;;;;40.58;23.13;;;;;;;;;;4945971;28;20047;-80
2022/05/03 08:42:50;;;;;;;31.60;22.55;;;;;;;;;;4868581;29;20144;-80
2022/05/03 08:45:18;;;;;;;40.85;22.73;;;;;;;;;;4868459;29;20049;-80
2022/05/03 08:47:47;;;;;;;36.20;23.23;;;;;;;;;;4867293;29;20139;-80
2022/05/03 08:50:19;;;;;;;31.95;21.85;;;;;;;;;;4867642;29;20235;-81
2022/05/03 08:52:50;;;;;;;38.28;22.52;;;;;;;;;;4867572;29;20052;-82
2022/05/03 08:55:17;;;;;;;35.10;21.98;;;;;;;;;;4864874;29;20139;-84
2022/05/03 08:57:44;;;;;;;38.72;22.38;;;;;;;;;;4852240;29;20085;-83
2022/05/03 09:00:13;;;;;;;37.03;22.48;;;;;;;;;;4864597;29;20128;-83
2022/05/03 09:02:43;;;;;;;;;;;;;;;;;;4820472;29;20502;-82
2022/05/03 09:05:13;;;;;;;34.97;21.45;;;;;;;;;;4824393;29;19924;-82
2022/05/03 09:07:51;;;;;;;38.85;22.33;;;;;;;;;;4828478;29;20255;-83
2022/05/03 09:10:26;;;;;;;36.05;21.33;;;;;;;;;;4828724;29;20651;-81
2022/05/03 09:12:55;;;;;;;34.67;21.98;;;;;;;;;;4828344;29;20093;-82
2022/05/03 09:15:30;;;;;;;34.67;22.10;;;;;;;;;;4923893;29;20483;-82
2022/05/03 09:17:58;;;;;;;37.00;21.73;;;;;;;;;;4923330;29;20134;-82
2022/05/03 09:26:11;;;;;;;30.80;21.25;;;;;;;;;;4920448;29;20043;-81
2022/05/03 09:28:44;;;;;;;34.13;22.40;;;;;;;;;;4925696;29;20111;-81
2022/05/03 09:31:11;;;;;;;33.97;20.95;;;;;;;;;;4925480;29;20461;-81
2022/05/03 09:33:38;;;;;;;36.90;21.17;;;;;;;;;;4926714;29;20136;-81
2022/05/03 09:36:10;;;;;;;35.53;21.83;;;;;;;;;;4926686;29;20488;-82
2022/05/03 09:38:57;;;;;;;32.00;21.98;;;;;;;;;;4926142;29;20524;-83
2022/05/03 09:41:23;;;;;;;44.53;22.40;;;;;;;;;;4909390;29;20130;-81
2022/05/03 09:43:59;;;;;;;40.55;22.42;;;;;;;;;;4925972;29;20139;-82
2022/05/03 09:46:26;;;;;;;32.97;22.08;;;;;;;;;;4925519;29;20094;-82
2022/05/03 09:48:56;;;;;;;30.55;20.95;;;;;;;;;;4925812;29;20070;-82
2022/05/03 09:51:23;;;;;;;33.22;21.95;;;;;;;;;;4926803;29;20539;-82
2022/05/03 09:54:00;;;;;;;31.75;20.52;;;;;;;;;;4926132;29;20131;-83
2022/05/03 09:56:28;;;;;;;33.55;21.40;;;;;;;;;;4908723;29;20074;-82
2022/05/03 09:59:06;;;;;;;36.45;21.63;;;;;;;;;;4926422;29;20079;-81
2022/05/03 10:01:34;;;;;;;36.50;21.52;;;;;;;;;;4926609;29;20094;-82
2022/05/03 10:04:05;;;;;;;40.90;21.33;;;;;;;;;;4945865;28;20062;-82
2022/05/03 10:06:33;;;;;;;38.80;20.40;;;;;;;;;;4945683;28;20131;-82
2022/05/03 10:09:01;;;;;;;33.42;19.75;;;;;;;;;;4946204;28;20075;-81
2022/05/03 10:11:27;;;;;;;29.60;19.10;;;;;;;;;;4944764;28;20615;-81
2022/05/03 10:13:54;;;;;;;43.22;19.27;;;;;;;;;;4944387;28;20047;-81
2022/05/03 10:22:01;;;;;;;25.20;17.55;;;;;;;;;;4945602;28;20039;-82
2022/05/03 10:24:29;;;;;;;24.83;18.35;;;;;;;;;;4945463;28;20094;-81
2022/05/03 10:27:01;;;;;;;27.98;18.90;;;;;;;;;;4945585;28;20051;-81
2022/05/03 10:29:32;;;;;;;27.38;17.80;;;;;;;;;;4945025;28;20121;-82
2022/05/03 10:32:05;;;;;;;21.30;16.17;;;;;;;;;;4949163;28;20071;-81
2022/05/03 10:34:43;;;;;;;27.58;16.90;;;;;;;;;;4948623;28;20048;-81
2022/05/03 10:37:16;;;;;;;23.92;16.35;;;;;;;;;;4948115;28;20082;-81
2022/05/03 10:39:51;;;;;;;26.70;15.55;;;;;;;;;;4948602;28;20598;-81
2022/05/03 10:42:25;;;;;;;27.85;16.05;;;;;;;;;;4947791;28;20481;-81
2022/05/03 10:45:09;;;;;;;25.05;16.00;;;;;;;;;;4948568;28;20067;-81
2022/05/03 10:47:49;;;;;;;22.17;16.95;;;;;;;;;;4948316;28;20456;-81
2022/05/03 10:50:15;;;;;;;23.77;16.73;;;;;;;;;;4948149;28;20107;-82
2022/05/03 10:53:05;;;;;;;23.88;17.40;;;;;;;;;;4947306;28;20069;-83
2022/05/03 10:55:37;;;;;;;25.30;18.52;;;;;;;;;;4941806;28;20050;-83
2022/05/03 10:58:34;;;;;;;27.25;17.77;;;;;;;;;;4947364;28;20504;-81
2022/05/03 11:01:04;;;;;;;24.83;18.63;;;;;;;;;;4948444;28;20047;-83
2022/05/03 11:03:33;;;;;;;25.52;19.15;;;;;;;;;;4948862;28;20775;-82
2022/05/03 11:06:27;;;;;;;24.85;18.25;;;;;;;;;;4963711;28;20047;-83
2022/05/03 11:11:44;;;;;;;25.20;18.23;;;;;;;;;;4947570;28;20043;-84
2022/05/03 11:14:11;;;;;;;20.90;15.75;;;;;;;;;;4947669;28;20198;-82
2022/05/03 11:16:37;;;;;;;19.08;15.98;;;;;;;;;;4948302;28;20550;-83
2022/05/03 11:19:18;;;;;;;20.10;15.88;;;;;;;;;;4946503;28;20049;-83
2022/05/03 11:21:46;;;;;;;20.77;15.30;;;;;;;;;;4947715;28;20055;-83
2022/05/03 11:24:32;;;;;;;23.75;15.70;;;;;;;;;;4946599;28;20055;-83
2022/05/03 11:27:02;;;;;;;18.75;14.88;;;;;;;;;;4948323;28;20148;-83
2022/05/03 11:29:35;;;;;;;20.45;15.13;;;;;;;;;;4947446;28;20054;-82
2022/05/03 11:32:06;;;;;;;21.85;14.38;;;;;;;;;;4948231;28;20438;-81
2022/05/03 11:34:33;;;;;;;18.48;14.07;;;;;;;;;;4946226;29;20043;-83
2022/05/03 11:37:01;;;;;;;19.85;13.73;;;;;;;;;;4945581;28;20053;-84
2022/05/03 11:39:28;;;;;;;18.60;14.90;;;;;;;;;;4947872;28;20043;-83
2022/05/03 11:41:55;;;;;;;16.15;12.75;;;;;;;;;;4946786;28;20078;-83
2022/05/03 11:44:22;;;;;;;20.65;13.65;;;;;;;;;;4947111;28;20134;-84
2022/05/03 11:46:49;;;;;;;19.65;13.50;;;;;;;;;;4954573;28;20133;-83
2022/05/03 11:49:17;;;;;;;20.48;13.55;;;;;;;;;;4947851;28;20377;-83
2022/05/03 11:57:22;;;;;;;14.88;13.20;;;;;;;;;;4947371;28;20589;-83
2022/05/03 11:59:52;;;;;;;15.52;12.48;;;;;;;;;;4947402;28;20110;-83
2022/05/03 12:02:30;;;;;;;16.02;13.70;;;;;;;;;;4947211;28;20047;-84
2022/05/03 12:05:21;;;;;;;15.02;12.88;;;;;;;;;;4947292;28;20051;-83
2022/05/03 12:07:57;;;;;;;16.33;13.18;;;;;;;;;;4943317;28;20070;-84
2022/05/03 12:10:26;;;;;;;15.80;13.13;;;;;;;;;;4950627;28;20504;-85
2022/05/03 12:13:16;;;;;;;19.58;13.88;;;;;;;;;;4950424;28;20546;-81
2022/05/03 12:15:46;;;;;;;22.63;13.68;;;;;;;;;;4948901;28;20119;-82
2022/05/03 12:18:23;;;;;;;20.77;14.18;;;;;;;;;;4950066;28;20098;-82
2022/05/03 12:20:59;;;;;;;19.15;13.13;;;;;;;;;;4951433;28;20097;-82
2022/05/03 12:23:38;;;;;;;15.32;12.18;;;;;;;;;;4950889;28;20040;-83
2022/05/03 12:26:19;;;;;;;;;;;;;;;;;;4951159;28;20078;-81
2022/05/03 12:28:51;;;;;;;16.92;12.35;;;;;;;;;;4951063;28;19965;-83
2022/05/03 12:31:20;;;;;;;16.27;12.48;;;;;;;;;;4951331;28;20078;-82
2022/05/03 12:33:48;;;;;;;17.38;12.75;;;;;;;;;;4951487;28;20067;-83
2022/05/03 12:36:28;;;;;;;17.17;13.25;;;;;;;;;;4951977;28;20051;-82
2022/05/03 12:38:55;;;;;;;16.70;12.98;;;;;;;;;;4951250;28;20078;-83
2022/05/03 12:41:30;;;;;;;15.65;12.55;;;;;;;;;;4950379;28;20417;-83
2022/05/03 12:44:06;;;;;;;16.38;12.55;;;;;;;;;;4951454;28;20043;-83
2022/05/03 12:46:33;;;;;;;16.05;12.00;;;;;;;;;;4951430;28;20079;-83
2022/05/03 12:49:04;;;;;;;16.75;12.35;;;;;;;;;;4935817;28;20050;-83
2022/05/03 12:51:32;;;;;;;18.17;12.52;;;;;;;;;;4947577;28;20512;-83
2022/05/03 12:54:07;;;;;;;16.90;13.47;;;;;;;;;;4950641;28;20074;-84
2022/05/03 12:59:21;;;;;;;16.13;14.02;;;;;;;;;;4950748;28;20896;-82
2022/05/03 13:01:50;;;;;;;18.60;13.23;;;;;;;;;;4950490;28;20106;-85
2022/05/03 13:04:18;;;;;;;15.75;12.35;;;;;;;;;;4951019;28;20042;-85
2022/05/03 13:06:45;;;;;;;18.85;12.98;;;;;;;;;;4950989;28;20055;-85
2022/05/03 13:09:13;;;;;;;15.93;11.95;;;;;;;;;;4947774;28;20047;-84
2022/05/03 13:11:40;;;;;;;15.82;11.70;;;;;;;;;;4946918;28;20126;-84
2022/05/03 13:14:08;;;;;;;20.00;12.38;;;;;;;;;;4950204;28;20102;-84
2022/05/03 13:16:36;;;;;;;17.33;13.23;;;;;;;;;;4951154;28;20081;-85
2022/05/03 13:19:03;;;;;;;17.17;12.88;;;;;;;;;;4951060;28;20123;-85
2022/05/03 13:21:36;;;;;;;14.73;12.55;;;;;;;;;;4947018;28;20047;-84
2022/05/03 13:24:05;;;;;;;17.05;12.43;;;;;;;;;;4950315;28;20567;-84
2022/05/03 13:26:32;;;;;;;12.77;11.18;;;;;;;;;;4950377;28;20067;-83
2022/05/03 13:29:05;;;;;;;13.40;11.13;;;;;;;;;;4950756;28;20507;-83
2022/05/03 13:31:32;;;;;;;16.73;12.60;;;;;;;;;;4950421;28;20043;-83
2022/05/03 13:33:59;;;;;;;18.60;12.70;;;;;;;;;;4950586;28;21031;-82
2022/05/03 13:41:56;;;;;;;15.15;12.60;;;;;;;;;;4950516;28;20078;-83
2022/05/03 13:44:25;;;;;;;19.60;13.43;;;;;;;;;;4949838;28;20170;-83
2022/05/03 13:46:52;;;;;;;15.63;11.60;;;;;;;;;;4950441;28;20055;-83
2022/05/03 13:49:19;;;;;;;19.17;12.13;;;;;;;;;;4950362;28;20047;-83
2022/05/03 13:51:47;;;;;;;15.70;11.98;;;;;;;;;;4950503;28;20055;-84
2022/05/03 13:54:13;;;;;;;20.98;11.52;;;;;;;;;;4927504;28;20059;-84
2022/05/03 13:56:40;;;;;;;14.25;11.68;;;;;;;;;;4944069;28;20526;-84
2022/05/03 13:59:07;;;;;;;15.68;10.82;;;;;;;;;;4942104;28;20457;-83
2022/05/03 14:01:34;;;;;;;13.93;10.95;;;;;;;;;;4933982;28;20469;-84
2022/05/03 14:04:02;;;;;;;11.70;10.07;;;;;;;;;;4923860;29;20051;-84
2022/05/03 14:06:29;;;;;;;16.77;10.75;;;;;;;;;;4933279;28;20170;-84
2022/05/03 14:08:57;;;;;;;14.73;10.15;;;;;;;;;;4927320;29;20055;-84
2022/05/03 14:11:24;;;;;;;13.88;10.30;;;;;;;;;;4897882;28;20261;-84
2022/05/03 14:13:51;;;;;;;14.18;11.18;;;;;;;;;;4927588;29;20047;-84
2022/05/03 14:16:18;;;;;;;13.10;10.68;;;;;;;;;;4914506;29;20067;-84
2022/05/03 14:18:44;;;;;;;13.48;9.68;;;;;;;;;;4931075;28;20527;-84
2022/05/03 14:21:12;;;;;;;17.52;9.30;;;;;;;;;;4929076;29;20091;-83
2022/05/03 14:23:40;;;;;;;12.15;8.95;;;;;;;;;;4933689;28;20541;-83
2022/05/03 14:26:09;;;;;;;12.05;8.65;;;;;;;;;;4929405;29;20054;-83
2022/05/03 14:28:37;;;;;;;15.27;7.93;;;;;;;;;;4932608;29;20402;-83
2022/05/03 14:31:04;;;;;;;11.83;8.53;;;;;;;;;;4933304;29;20106;-83
2022/05/03 14:33:30;;;;;;;13.10;7.50;;;;;;;;;;4934810;29;20047;-83
2022/05/03 14:35:57;;;;;;;12.75;8.15;;;;;;;;;;4934115;29;20127;-84
2022/05/03 14:38:23;;;;;;;9.82;8.52;;;;;;;;;;4933431;29;20090;-84
2022/05/03 14:40:53;;;;;;;9.50;8.13;;;;;;;;;;4934087;29;20075;-84
2022/05/03 14:43:20;;;;;;;11.50;8.48;;;;;;;;;;4933647;29;20055;-83
2022/05/03 14:45:48;;;;;;;9.55;7.70;;;;;;;;;;4933286;29;20424;-84
2022/05/03 14:48:15;;;;;;;10.38;7.55;;;;;;;;;;4932481;29;20102;-82
2022/05/03 14:50:42;;;;;;;9.18;7.38;;;;;;;;;;4933636;29;20068;-83
2022/05/03 14:53:10;;;;;;;20.35;7.35;;;;;;;;;;4928536;29;20127;-85
2022/05/03 15:02:51;;;;;;;13.13;7.15;;;;;;;;;;4933514;29;20058;-82
2022/05/03 15:03:57;;;;;;;11.05;6.65;;;;;;;;;;4953061;28;20500;-84
2022/05/03 15:06:24;;;;;;;8.90;7.63;;;;;;;;;;4953079;28;20051;-84
2022/05/03 15:08:52;;;;;;;9.55;6.75;;;;;;;;;;4951687;28;20662;-84
2022/05/03 15:11:18;;;;;;;9.60;6.30;;;;;;;;;;4952335;28;20074;-84
2022/05/03 15:13:45;;;;;;;11.68;7.45;;;;;;;;;;4953095;28;20081;-84
2022/05/03 15:16:12;;;;;;;9.18;6.97;;;;;;;;;;4951767;28;20139;-82
2022/05/03 15:18:39;;;;;;;10.50;6.90;;;;;;;;;;4950177;28;20127;-81
2022/05/03 15:21:05;;;;;;;8.43;7.03;;;;;;;;;;4952946;28;20081;-81
2022/05/03 15:26:17;;;;;;;9.05;7.03;;;;;;;;;;4947468;28;20138;-83
2022/05/03 15:28:43;;;;;;;10.43;6.50;;;;;;;;;;4949134;28;20090;-84
2022/05/03 15:31:10;;;;;;;14.30;6.10;;;;;;;;;;4950742;28;20090;-81
2022/05/03 15:33:37;;;;;;;10.23;7.70;;;;;;;;;;4951643;28;20109;-82
2022/05/03 15:36:03;;;;;;;11.13;7.53;;;;;;;;;;4951517;28;20078;-80
2022/05/03 15:38:30;;;;;;;8.48;7.00;;;;;;;;;;4951455;28;20130;-79
2022/05/03 15:40:57;;;;;;;6.90;5.90;;;;;;;;;;4951409;28;20520;-80
2022/05/03 15:43:24;;;;;;;9.75;7.25;;;;;;;;;;4951659;28;20086;-82
2022/05/03 15:45:51;;;;;;;8.57;6.70;;;;;;;;;;4952625;28;20051;-80
2022/05/03 15:48:18;;;;;;;11.75;7.43;;;;;;;;;;4951935;28;20047;-81
2022/05/03 15:50:44;;;;;;;10.93;7.00;;;;;;;;;;4963273;28;20110;-81
2022/05/03 15:53:11;;;;;;;11.40;6.95;;;;;;;;;;4947169;28;20142;-81
2022/05/03 15:55:38;;;;;;;8.13;7.10;;;;;;;;;;4947641;28;20528;-81
2022/05/03 15:58:11;;;;;;;8.65;7.10;;;;;;;;;;4947248;28;20065;-80
2022/05/03 16:00:38;;;;;;;9.13;7.47;;;;;;;;;;4947645;28;20055;-81
2022/05/03 16:03:04;;;;;;;11.27;8.07;;;;;;;;;;4947346;28;20073;-80
2022/05/03 16:05:31;;;;;;;11.85;9.43;;;;;;;;;;4945682;28;20047;-81
2022/05/03 16:07:59;;;;;;;9.80;8.32;;;;;;;;;;4947430;28;20047;-82
2022/05/03 16:10:26;;;;;;;11.45;9.27;;;;;;;;;;4947389;28;20102;-79
2022/05/03 16:12:52;;;;;;;9.85;8.07;;;;;;;;;;4947099;28;20142;-81
2022/05/03 16:15:22;;;;;;;9.45;7.10;;;;;;;;;;4947490;28;20086;-80
2022/05/03 16:17:52;;;;;;;8.68;6.97;;;;;;;;;;4947980;28;20527;-80
2022/05/03 16:20:25;;;;;;;9.27;7.65;;;;;;;;;;4947064;28;20075;-81
2022/05/03 16:22:52;;;;;;;11.15;7.90;;;;;;;;;;4947863;28;20062;-80
2022/05/03 16:25:18;;;;;;;7.68;6.40;;;;;;;;;;4947201;28;20114;-81
2022/05/03 16:27:45;;;;;;;9.07;6.50;;;;;;;;;;4946908;28;20055;-81
2022/05/03 16:30:12;;;;;;;8.15;5.85;;;;;;;;;;4946972;28;20053;-81
2022/05/03 16:32:41;;;;;;;10.35;6.07;;;;;;;;;;4947312;28;20074;-81
2022/05/03 16:35:08;;;;;;;8.57;5.28;;;;;;;;;;4946227;28;20126;-80
2022/05/03 16:43:05;;;;;;;11.43;6.97;;;;;;;;;;4946666;28;20448;-79
2022/05/03 16:45:33;;;;;;;8.80;6.78;;;;;;;;;;4947423;28;20118;-79
2022/05/03 16:48:00;;;;;;;7.95;6.18;;;;;;;;;;4941234;28;20134;-79
2022/05/03 16:50:27;;;;;;;11.63;6.60;;;;;;;;;;4946501;28;20595;-80
2022/05/03 16:52:58;;;;;;;8.05;6.65;;;;;;;;;;4946260;28;20134;-79
2022/05/03 16:55:26;;;;;;;6.95;5.97;;;;;;;;;;4945839;28;20424;-79
2022/05/03 16:57:53;;;;;;;8.60;5.72;;;;;;;;;;4945192;28;20075;-80
2022/05/03 17:00:25;;;;;;;10.57;6.25;;;;;;;;;;4946082;28;22342;-80
2022/05/03 17:02:52;;;;;;;7.95;5.65;;;;;;;;;;4946290;28;20065;-80
2022/05/03 17:05:20;;;;;;;10.43;7.03;;;;;;;;;;4945806;28;20086;-80
2022/05/03 17:07:47;;;;;;;12.55;7.68;;;;;;;;;;4946508;28;20142;-81
2022/05/03 17:10:14;;;;;;;8.85;6.18;;;;;;;;;;4944940;28;20067;-81
2022/05/03 17:12:40;;;;;;;12.50;8.75;;;;;;;;;;4947237;28;20174;-81
2022/05/03 17:15:07;;;;;;;8.30;5.20;;;;;;;;;;4945994;28;20051;-80
2022/05/03 17:17:34;;;;;;;10.05;5.65;;;;;;;;;;4946484;28;20475;-80
2022/05/03 17:20:01;;;;;;;7.10;5.90;;;;;;;;;;4946138;28;20047;-81
2022/05/03 17:22:28;;;;;;;18.98;13.52;;;;;;;;;;4945569;28;20071;-81
2022/05/03 17:24:55;;;;;;;16.63;11.50;;;;;;;;;;4946088;28;20535;-81
2022/05/03 17:27:23;;;;;;;8.25;6.55;;;;;;;;;;4943202;28;20071;-80
2022/05/03 17:29:49;;;;;;;6.85;5.68;;;;;;;;;;4943871;28;20570;-82
2022/05/03 17:32:17;;;;;;;8.40;6.75;;;;;;;;;;4944490;28;20051;-82
2022/05/03 17:34:44;;;;;;;8.18;7.22;;;;;;;;;;4941827;28;20138;-81
2022/05/03 17:37:10;;;;;;;15.55;8.68;;;;;;;;;;4944065;28;20404;-80
2022/05/03 17:39:37;;;;;;;13.18;9.43;;;;;;;;;;4947467;28;20618;-82
2022/05/03 17:42:04;;;;;;;12.60;9.52;;;;;;;;;;4949583;28;20043;-80
2022/05/03 17:44:31;;;;;;;16.70;9.77;;;;;;;;;;4949344;28;20051;-80
2022/05/03 17:47:01;;;;;;;13.43;10.07;;;;;;;;;;4949379;28;20055;-80
2022/05/03 17:49:34;;;;;;;14.48;10.10;;;;;;;;;;4948327;28;20055;-81
2022/05/03 17:54:49;;;;;;;12.93;11.07;;;;;;;;;;4948477;28;20087;-81
2022/05/03 17:57:17;;;;;;;14.05;10.98;;;;;;;;;;4949359;28;20043;-82
2022/05/03 17:59:45;;;;;;;13.40;11.23;;;;;;;;;;4948728;28;20063;-82
2022/05/03 18:02:13;;;;;;;13.05;11.05;;;;;;;;;;4948862;28;20047;-81
2022/05/03 18:04:40;;;;;;;18.05;11.98;;;;;;;;;;4949517;28;20059;-81
2022/05/03 18:07:10;;;;;;;16.13;12.15;;;;;;;;;;4947341;28;20141;-79
2022/05/03 18:09:36;;;;;;;15.15;12.25;;;;;;;;;;4949944;28;20496;-81
2022/05/03 18:12:03;;;;;;;13.88;11.95;;;;;;;;;;4949520;28;20130;-79
2022/05/03 18:14:30;;;;;;;15.18;13.10;;;;;;;;;;4946290;28;20055;-79
2022/05/03 18:16:57;;;;;;;16.98;12.82;;;;;;;;;;4947643;28;20055;-79
2022/05/03 18:19:24;;;;;;;19.75;12.95;;;;;;;;;;4948364;28;20063;-80
2022/05/03 18:21:50;;;;;;;18.38;14.23;;;;;;;;;;4948211;28;20504;-81
2022/05/03 18:24:17;;;;;;;20.15;14.73;;;;;;;;;;4948273;28;20047;-79
2022/05/03 18:26:45;;;;;;;19.02;14.55;;;;;;;;;;4947086;28;20576;-79
2022/05/03 18:29:12;;;;;;;18.95;13.95;;;;;;;;;;4945379;28;20472;-79
2022/05/03 18:31:38;;;;;;;21.25;15.32;;;;;;;;;;4946859;28;20069;-80
2022/05/03 18:34:05;;;;;;;20.63;16.20;;;;;;;;;;4949603;28;20054;-80
2022/05/03 18:36:32;;;;;;;22.70;15.45;;;;;;;;;;4950491;28;20067;-79
2022/05/03 18:38:59;;;;;;;20.98;16.33;;;;;;;;;;4948774;28;20058;-79
2022/05/03 18:41:27;;;;;;;19.13;15.45;;;;;;;;;;4948368;28;20138;-78
2022/05/03 18:43:54;;;;;;;22.20;16.38;;;;;;;;;;4948015;28;20079;-80
2022/05/03 18:46:26;;;;;;;17.75;15.30;;;;;;;;;;4942536;28;20048;-78
2022/05/03 18:48:53;;;;;;;18.80;14.65;;;;;;;;;;4949052;28;20542;-79
2022/05/03 18:51:20;;;;;;;19.08;14.38;;;;;;;;;;4948350;28;20103;-80
2022/05/03 18:55:40;;;;;;;20.27;14.70;;;;;;;;;;4949608;28;20058;-80
2022/05/03 18:56:33;;;;;;;21.98;14.10;;;;;;;;;;4949115;28;20066;-80
2022/05/03 18:59:01;;;;;;;21.27;14.73;;;;;;;;;;4949042;28;20067;-80
2022/05/03 19:01:27;;;;;;;19.33;14.05;;;;;;;;;;4948676;28;20082;-81
2022/05/03 19:03:54;;;;;;;20.67;14.30;;;;;;;;;;4949030;28;20058;-80
2022/05/03 19:06:21;;;;;;;21.13;13.73;;;;;;;;;;4949713;28;20055;-82
2022/05/03 19:08:48;;;;;;;19.17;13.65;;;;;;;;;;4947837;28;20063;-80
2022/05/03 19:11:16;;;;;;;17.17;13.93;;;;;;;;;;4948475;28;20082;-79
2022/05/03 19:13:43;;;;;;;17.50;13.38;;;;;;;;;;4949334;28;20563;-80
2022/05/03 19:16:10;;;;;;;16.63;13.00;;;;;;;;;;4947698;28;20078;-79
2022/05/03 19:18:37;;;;;;;17.13;13.32;;;;;;;;;;4947338;28;20405;-81
2022/05/03 19:21:05;;;;;;;19.23;13.60;;;;;;;;;;4947208;28;20075;-81
2022/05/03 19:23:31;;;;;;;17.27;13.43;;;;;;;;;;4948640;28;20066;-81
2022/05/03 19:31:32;;;;;;;17.95;13.00;;;;;;;;;;4945671;28;20051;-81
2022/05/03 19:33:59;;;;;;;17.75;12.75;;;;;;;;;;4946612;28;20082;-80
2022/05/03 19:36:27;;;;;;;16.50;13.02;;;;;;;;;;4946356;29;20051;-80
2022/05/03 19:38:54;;;;;;;19.45;13.18;;;;;;;;;;4946126;29;20079;-81
2022/05/03 19:41:21;;;;;;;15.82;12.82;;;;;;;;;;4944391;29;20154;-80
2022/05/03 19:43:47;;;;;;;16.85;12.93;;;;;;;;;;4944795;29;20552;-80
2022/05/03 19:46:14;;;;;;;20.10;13.80;;;;;;;;;;4944827;28;20082;-80
2022/05/03 19:48:40;;;;;;;16.30;12.68;;;;;;;;;;4945503;29;20710;-81
2022/05/03 19:51:08;;;;;;;19.65;13.52;;;;;;;;;;4945041;29;20077;-80
2022/05/03 19:53:34;;;;;;;18.55;13.90;;;;;;;;;;4943857;29;20134;-78
2022/05/03 19:56:01;;;;;;;18.33;13.45;;;;;;;;;;4945668;29;20047;-79
2022/05/03 19:58:28;;;;;;;22.45;13.45;;;;;;;;;;4944178;28;20058;-79
2022/05/03 20:00:54;;;;;;;21.77;13.05;;;;;;;;;;4929296;29;20095;-79
2022/05/03 20:03:21;;;;;;;18.73;13.88;;;;;;;;;;4945157;28;20051;-79
2022/05/03 20:05:49;;;;;;;20.65;13.95;;;;;;;;;;4943717;29;20054;-78
2022/05/03 20:08:25;;;;;;;16.20;12.55;;;;;;;;;;4944687;28;20045;-79
2022/05/03 20:10:54;;;;;;;17.35;13.82;;;;;;;;;;4946273;28;20524;-79
2022/05/03 20:13:21;;;;;;;16.45;13.38;;;;;;;;;;4947385;28;20051;-81
2022/05/03 20:15:47;;;;;;;17.50;14.02;;;;;;;;;;4948050;28;20079;-83
2022/05/03 20:18:14;;;;;;;18.85;14.45;;;;;;;;;;4945236;28;20047;-81
2022/05/03 20:20:41;;;;;;;17.48;13.90;;;;;;;;;;4946216;29;20674;-81
2022/05/03 20:23:08;;;;;;;17.58;13.77;;;;;;;;;;4950347;28;20051;-82
2022/05/03 20:25:37;;;;;;;18.60;14.45;;;;;;;;;;4947919;28;20055;-81
2022/05/03 20:28:05;;;;;;;19.27;14.35;;;;;;;;;;4945912;28;20110;-80
2022/05/03 20:30:32;;;;;;;18.13;15.48;;;;;;;;;;4939707;28;20126;-79
2022/05/03 20:33:00;;;;;;;20.58;14.95;;;;;;;;;;4942517;28;20154;-79
2022/05/03 20:35:27;;;;;;;17.50;13.98;;;;;;;;;;4947637;28;20055;-80
2022/05/03 20:37:54;;;;;;;22.63;15.70;;;;;;;;;;4948719;28;20476;-79
2022/05/03 20:40:20;;;;;;;19.02;15.02;;;;;;;;;;4943832;28;20177;-79
2022/05/03 20:42:47;;;;;;;17.35;14.40;;;;;;;;;;4944700;28;20086;-82
2022/05/03 20:45:13;;;;;;;20.98;15.50;;;;;;;;;;4945630;28;20039;-80
2022/05/03 20:50:27;;;;;;;22.08;15.77;;;;;;;;;;4942780;28;20094;-80
2022/05/03 20:52:53;;;;;;;23.42;16.45;;;;;;;;;;4943932;28;20047;-82
2022/05/03 20:55:20;;;;;;;24.65;16.13;;;;;;;;;;4937092;28;20047;-81
2022/05/03 20:57:47;;;;;;;19.67;15.50;;;;;;;;;;4944663;28;20523;-79
2022/05/03 21:00:14;;;;;;;20.77;15.68;;;;;;;;;;4946522;28;20170;-80
2022/05/03 21:02:41;;;;;;;20.58;15.50;;;;;;;;;;4908896;29;20059;-78
2022/05/03 21:05:08;;;;;;;22.15;15.52;;;;;;;;;;4927637;29;20575;-80
2022/05/03 21:07:35;;;;;;;22.05;16.17;;;;;;;;;;4925676;29;20055;-80
2022/05/03 21:10:04;;;;;;;20.95;16.15;;;;;;;;;;4929605;29;20051;-77
2022/05/03 21:12:31;;;;;;;22.88;16.02;;;;;;;;;;4914632;29;20040;-81
2022/05/03 21:14:58;;;;;;;20.13;15.75;;;;;;;;;;4929579;29;20086;-81
2022/05/03 21:17:25;;;;;;;23.60;15.60;;;;;;;;;;4913504;29;20071;-82
2022/05/03 21:19:52;;;;;;;22.60;16.05;;;;;;;;;;4923265;29;20472;-82
2022/05/03 21:22:21;;;;;;;29.27;16.85;;;;;;;;;;4918042;29;20420;-82
2022/05/03 21:24:48;;;;;;;20.55;15.63;;;;;;;;;;4931345;29;20533;-84
2022/05/03 21:27:16;;;;;;;21.23;15.70;;;;;;;;;;4927989;29;20220;-82
2022/05/03 21:29:43;;;;;;;25.88;16.20;;;;;;;;;;4922445;29;20501;-82
2022/05/03 21:32:12;;;;;;;21.60;15.63;;;;;;;;;;4923649;29;20048;-82
2022/05/03 21:34:39;;;;;;;24.63;16.08;;;;;;;;;;4931184;29;20086;-82